Terminal Aerodrome Forecast
Issued by NWS Grand Forks, ND

Home | Current Version | Previous Version | Graphics & Text | Print | Product List | Glossary On
Versions: 1 2 3 4 5 6 7 8 9 10 11 12 13 14 15 16 17 18 19 20
000
FTUS43 KFGF 281400 AAA
TAFFAR
TAF AMD
KFAR 281412Z 2814/2912 33014G20KT P6SM OVC015
      TEMPO 2814/2816 SCT015 BKN050
     FM281600 32022G32KT P6SM OVC025
     FM290000 32015G24KT P6SM OVC020
     FM290600 32012KT P6SM BKN035=

USA.gov is the U.S. government's official web portal to all federal, state and local government web resources and services.